sensor_id;sensor_type;location;lat;lon;timestamp;temperature;humidity
33717;DHT22;20046;50.746;7.072;2022-12-07T00:01:09;4.60;99.90
33717;DHT22;20046;50.746;7.072;2022-12-07T00:03:35;4.60;99.90
33717;DHT22;20046;50.746;7.072;2022-12-07T00:06:03;4.60;99.90
33717;DHT22;20046;50.746;7.072;2022-12-07T00:08:29;4.60;99.90
33717;DHT22;20046;50.746;7.072;2022-12-07T00:10:55;4.60;99.90
33717;DHT22;20046;50.746;7.072;2022-12-07T00:13:20;4.70;99.90
33717;DHT22;20046;50.746;7.072;2022-12-07T00:15:46;4.70;99.90
33717;DHT22;20046;50.746;7.072;2022-12-07T00:18:12;4.70;99.90
33717;DHT22;20046;50.746;7.072;2022-12-07T00:20:37;4.70;99.90
33717;DHT22;20046;50.746;7.072;2022-12-07T00:23:03;4.70;99.90
33717;DHT22;20046;50.746;7.072;2022-12-07T00:25:30;4.70;99.90
33717;DHT22;20046;50.746;7.072;2022-12-07T00:27:55;4.70;99.90
33717;DHT22;20046;50.746;7.072;2022-12-07T00:30:22;4.70;99.90
33717;DHT22;20046;50.746;7.072;2022-12-07T00:32:48;4.80;99.90
33717;DHT22;20046;50.746;7.072;2022-12-07T00:35:13;4.80;99.90
33717;DHT22;20046;50.746;7.072;2022-12-07T00:37:39;4.80;99.90
33717;DHT22;20046;50.746;7.072;2022-12-07T00:40:05;4.80;99.90
33717;DHT22;20046;50.746;7.072;2022-12-07T00:42:31;4.80;99.90
33717;DHT22;20046;50.746;7.072;2022-12-07T00:44:57;4.80;99.90
33717;DHT22;20046;50.746;7.072;2022-12-07T00:47:22;4.90;99.90
33717;DHT22;20046;50.746;7.072;2022-12-07T00:49:48;4.90;99.90
33717;DHT22;20046;50.746;7.072;2022-12-07T00:52:13;4.90;99.90
33717;DHT22;20046;50.746;7.072;2022-12-07T00:54:39;4.90;99.90
33717;DHT22;20046;50.746;7.072;2022-12-07T00:57:05;4.90;99.90
33717;DHT22;20046;50.746;7.072;2022-12-07T00:59:31;4.90;99.90
33717;DHT22;20046;50.746;7.072;2022-12-07T01:01:56;4.90;99.90
33717;DHT22;20046;50.746;7.072;2022-12-07T01:04:22;4.90;99.90
33717;DHT22;20046;50.746;7.072;2022-12-07T01:06:47;4.90;99.90
33717;DHT22;20046;50.746;7.072;2022-12-07T01:09:13;4.90;99.90
33717;DHT22;20046;50.746;7.072;2022-12-07T01:11:38;4.90;99.90
33717;DHT22;20046;50.746;7.072;2022-12-07T01:14:04;4.90;99.90
33717;DHT22;20046;50.746;7.072;2022-12-07T01:16:31;4.90;99.90
33717;DHT22;20046;50.746;7.072;2022-12-07T01:18:58;4.90;99.90
33717;DHT22;20046;50.746;7.072;2022-12-07T01:21:29;4.90;99.90
33717;DHT22;20046;50.746;7.072;2022-12-07T01:23:57;4.90;99.90
33717;DHT22;20046;50.746;7.072;2022-12-07T01:26:24;4.90;99.90
33717;DHT22;20046;50.746;7.072;2022-12-07T01:28:50;4.90;99.90
33717;DHT22;20046;50.746;7.072;2022-12-07T01:31:19;4.90;99.90
33717;DHT22;20046;50.746;7.072;2022-12-07T01:33:47;5.00;99.90
33717;DHT22;20046;50.746;7.072;2022-12-07T01:38:42;5.00;99.90
33717;DHT22;20046;50.746;7.072;2022-12-07T01:41:08;5.00;99.90
33717;DHT22;20046;50.746;7.072;2022-12-07T01:43:34;5.00;99.90
33717;DHT22;20046;50.746;7.072;2022-12-07T01:46:00;5.00;99.90
33717;DHT22;20046;50.746;7.072;2022-12-07T01:48:38;5.00;99.90
33717;DHT22;20046;50.746;7.072;2022-12-07T01:51:09;5.00;99.90
33717;DHT22;20046;50.746;7.072;2022-12-07T01:53:37;5.10;99.90
33717;DHT22;20046;50.746;7.072;2022-12-07T01:56:04;5.10;99.90
33717;DHT22;20046;50.746;7.072;2022-12-07T01:58:30;5.10;99.90
33717;DHT22;20046;50.746;7.072;2022-12-07T02:00:56;5.00;99.90
33717;DHT22;20046;50.746;7.072;2022-12-07T02:03:29;5.10;99.90
33717;DHT22;20046;50.746;7.072;2022-12-07T02:05:57;5.10;99.90
33717;DHT22;20046;50.746;7.072;2022-12-07T02:08:24;5.10;99.90
33717;DHT22;20046;50.746;7.072;2022-12-07T02:10:50;5.10;99.90
33717;DHT22;20046;50.746;7.072;2022-12-07T02:13:20;5.10;99.90
33717;DHT22;20046;50.746;7.072;2022-12-07T02:18:43;5.10;99.90
33717;DHT22;20046;50.746;7.072;2022-12-07T02:21:15;5.10;99.90
33717;DHT22;20046;50.746;7.072;2022-12-07T02:29:35;5.10;99.90
33717;DHT22;20046;50.746;7.072;2022-12-07T02:32:18;5.10;99.90
33717;DHT22;20046;50.746;7.072;2022-12-07T02:37:47;5.10;99.90
33717;DHT22;20046;50.746;7.072;2022-12-07T02:40:25;5.10;99.90
33717;DHT22;20046;50.746;7.072;2022-12-07T02:43:04;5.10;99.90
33717;DHT22;20046;50.746;7.072;2022-12-07T02:45:32;5.10;99.90
33717;DHT22;20046;50.746;7.072;2022-12-07T02:48:00;5.10;99.90
33717;DHT22;20046;50.746;7.072;2022-12-07T02:50:27;5.10;99.90
33717;DHT22;20046;50.746;7.072;2022-12-07T02:52:54;5.10;99.90
33717;DHT22;20046;50.746;7.072;2022-12-07T02:55:25;5.10;99.90
33717;DHT22;20046;50.746;7.072;2022-12-07T02:58:13;5.10;99.90
33717;DHT22;20046;50.746;7.072;2022-12-07T03:01:08;5.10;99.90
33717;DHT22;20046;50.746;7.072;2022-12-07T03:03:37;5.20;99.90
33717;DHT22;20046;50.746;7.072;2022-12-07T03:06:15;5.20;99.90
33717;DHT22;20046;50.746;7.072;2022-12-07T03:09:04;5.20;99.90
33717;DHT22;20046;50.746;7.072;2022-12-07T03:11:48;5.20;99.90
33717;DHT22;20046;50.746;7.072;2022-12-07T03:14:23;5.20;99.90
33717;DHT22;20046;50.746;7.072;2022-12-07T03:16:57;5.20;99.90
33717;DHT22;20046;50.746;7.072;2022-12-07T03:19:23;5.20;99.90
33717;DHT22;20046;50.746;7.072;2022-12-07T03:21:57;5.10;99.90
33717;DHT22;20046;50.746;7.072;2022-12-07T03:24:28;5.20;99.90
33717;DHT22;20046;50.746;7.072;2022-12-07T03:27:03;5.20;99.90
33717;DHT22;20046;50.746;7.072;2022-12-07T03:29:34;5.20;99.90
33717;DHT22;20046;50.746;7.072;2022-12-07T03:32:26;5.20;99.90
33717;DHT22;20046;50.746;7.072;2022-12-07T03:34:55;5.10;99.90
33717;DHT22;20046;50.746;7.072;2022-12-07T03:37:49;5.10;99.90
33717;DHT22;20046;50.746;7.072;2022-12-07T03:42:48;5.20;99.90
33717;DHT22;20046;50.746;7.072;2022-12-07T03:45:15;5.20;99.90
33717;DHT22;20046;50.746;7.072;2022-12-07T03:47:53;5.20;99.90
33717;DHT22;20046;50.746;7.072;2022-12-07T03:50:31;5.20;99.90
33717;DHT22;20046;50.746;7.072;2022-12-07T03:53:08;5.20;99.90
33717;DHT22;20046;50.746;7.072;2022-12-07T03:55:40;5.20;99.90
33717;DHT22;20046;50.746;7.072;2022-12-07T03:58:15;5.20;99.90
33717;DHT22;20046;50.746;7.072;2022-12-07T04:00:42;5.20;99.90
33717;DHT22;20046;50.746;7.072;2022-12-07T04:03:08;5.20;99.90
33717;DHT22;20046;50.746;7.072;2022-12-07T04:05:34;5.20;99.90
33717;DHT22;20046;50.746;7.072;2022-12-07T04:08:00;5.20;99.90
33717;DHT22;20046;50.746;7.072;2022-12-07T04:10:26;5.20;99.90
33717;DHT22;20046;50.746;7.072;2022-12-07T04:12:51;5.20;99.90
33717;DHT22;20046;50.746;7.072;2022-12-07T04:15:17;5.10;99.90
33717;DHT22;20046;50.746;7.072;2022-12-07T04:17:43;5.20;99.90
33717;DHT22;20046;50.746;7.072;2022-12-07T04:20:09;5.10;99.90
33717;DHT22;20046;50.746;7.072;2022-12-07T04:22:34;5.10;99.90
33717;DHT22;20046;50.746;7.072;2022-12-07T04:25:00;5.20;99.90
33717;DHT22;20046;50.746;7.072;2022-12-07T04:27:26;5.20;99.90
33717;DHT22;20046;50.746;7.072;2022-12-07T04:29:51;5.20;99.90
33717;DHT22;20046;50.746;7.072;2022-12-07T04:32:17;5.10;99.90
33717;DHT22;20046;50.746;7.072;2022-12-07T04:34:42;5.10;99.90
33717;DHT22;20046;50.746;7.072;2022-12-07T04:37:08;5.10;99.90
33717;DHT22;20046;50.746;7.072;2022-12-07T04:39:33;5.10;99.90
33717;DHT22;20046;50.746;7.072;2022-12-07T04:42:00;5.10;99.90
33717;DHT22;20046;50.746;7.072;2022-12-07T04:44:27;5.10;99.90
33717;DHT22;20046;50.746;7.072;2022-12-07T04:46:56;5.10;99.90
33717;DHT22;20046;50.746;7.072;2022-12-07T04:49:23;5.10;99.90
33717;DHT22;20046;50.746;7.072;2022-12-07T04:51:49;5.10;99.90
33717;DHT22;20046;50.746;7.072;2022-12-07T04:54:15;5.10;99.90
33717;DHT22;20046;50.746;7.072;2022-12-07T04:56:41;5.10;99.90
33717;DHT22;20046;50.746;7.072;2022-12-07T04:59:07;5.10;99.90
33717;DHT22;20046;50.746;7.072;2022-12-07T05:01:33;5.00;99.90
33717;DHT22;20046;50.746;7.072;2022-12-07T05:03:59;5.00;99.90
33717;DHT22;20046;50.746;7.072;2022-12-07T05:06:25;4.90;99.90
33717;DHT22;20046;50.746;7.072;2022-12-07T05:08:50;4.90;99.90
33717;DHT22;20046;50.746;7.072;2022-12-07T05:11:16;4.90;99.90
33717;DHT22;20046;50.746;7.072;2022-12-07T05:14:02;4.80;99.90
33717;DHT22;20046;50.746;7.072;2022-12-07T05:16:28;4.80;99.90
33717;DHT22;20046;50.746;7.072;2022-12-07T05:18:54;4.80;99.90
33717;DHT22;20046;50.746;7.072;2022-12-07T05:21:19;4.70;99.90
33717;DHT22;20046;50.746;7.072;2022-12-07T05:23:45;4.70;99.90
33717;DHT22;20046;50.746;7.072;2022-12-07T05:26:10;4.70;99.90
33717;DHT22;20046;50.746;7.072;2022-12-07T05:28:36;4.70;99.90
33717;DHT22;20046;50.746;7.072;2022-12-07T05:31:02;4.60;99.90
33717;DHT22;20046;50.746;7.072;2022-12-07T05:33:27;4.60;99.90
33717;DHT22;20046;50.746;7.072;2022-12-07T05:35:53;4.50;99.90
33717;DHT22;20046;50.746;7.072;2022-12-07T05:38:18;4.50;99.90
33717;DHT22;20046;50.746;7.072;2022-12-07T05:40:44;4.60;99.90
33717;DHT22;20046;50.746;7.072;2022-12-07T05:43:10;4.60;99.90
33717;DHT22;20046;50.746;7.072;2022-12-07T05:45:35;4.60;99.90
33717;DHT22;20046;50.746;7.072;2022-12-07T05:48:01;4.70;99.90
33717;DHT22;20046;50.746;7.072;2022-12-07T05:50:26;4.70;99.90
33717;DHT22;20046;50.746;7.072;2022-12-07T05:52:53;4.70;99.90
33717;DHT22;20046;50.746;7.072;2022-12-07T05:55:18;4.70;99.90
33717;DHT22;20046;50.746;7.072;2022-12-07T05:57:44;4.70;99.90
33717;DHT22;20046;50.746;7.072;2022-12-07T06:00:30;4.70;99.90
33717;DHT22;20046;50.746;7.072;2022-12-07T06:02:55;4.70;99.90
33717;DHT22;20046;50.746;7.072;2022-12-07T06:05:21;4.70;99.90
33717;DHT22;20046;50.746;7.072;2022-12-07T06:07:46;4.70;99.90
33717;DHT22;20046;50.746;7.072;2022-12-07T06:10:12;4.70;99.90
33717;DHT22;20046;50.746;7.072;2022-12-07T06:12:37;4.60;99.90
33717;DHT22;20046;50.746;7.072;2022-12-07T06:15:05;4.70;99.90
33717;DHT22;20046;50.746;7.072;2022-12-07T06:17:32;4.70;99.90
33717;DHT22;20046;50.746;7.072;2022-12-07T06:19:57;4.70;99.90
33717;DHT22;20046;50.746;7.072;2022-12-07T06:22:23;4.70;99.90
33717;DHT22;20046;50.746;7.072;2022-12-07T06:24:48;4.70;99.90
33717;DHT22;20046;50.746;7.072;2022-12-07T06:27:14;4.80;99.90
33717;DHT22;20046;50.746;7.072;2022-12-07T06:29:40;4.80;99.90
33717;DHT22;20046;50.746;7.072;2022-12-07T06:32:05;4.90;99.90
33717;DHT22;20046;50.746;7.072;2022-12-07T06:34:31;4.80;99.90
33717;DHT22;20046;50.746;7.072;2022-12-07T06:36:57;4.80;99.90
33717;DHT22;20046;50.746;7.072;2022-12-07T06:39:25;4.80;99.90
33717;DHT22;20046;50.746;7.072;2022-12-07T06:41:51;4.80;99.90
33717;DHT22;20046;50.746;7.072;2022-12-07T06:44:20;4.70;99.90
33717;DHT22;20046;50.746;7.072;2022-12-07T06:46:47;4.70;99.90
33717;DHT22;20046;50.746;7.072;2022-12-07T06:49:13;4.60;99.90
33717;DHT22;20046;50.746;7.072;2022-12-07T06:51:38;4.50;99.90
33717;DHT22;20046;50.746;7.072;2022-12-07T06:54:10;4.50;99.90
33717;DHT22;20046;50.746;7.072;2022-12-07T06:56:36;4.40;99.90
33717;DHT22;20046;50.746;7.072;2022-12-07T06:59:02;4.40;99.90
33717;DHT22;20046;50.746;7.072;2022-12-07T07:01:28;4.30;99.90
33717;DHT22;20046;50.746;7.072;2022-12-07T07:03:54;4.30;99.90
33717;DHT22;20046;50.746;7.072;2022-12-07T07:06:19;4.30;99.90
33717;DHT22;20046;50.746;7.072;2022-12-07T07:08:45;4.30;99.90
33717;DHT22;20046;50.746;7.072;2022-12-07T07:11:11;4.30;99.90
33717;DHT22;20046;50.746;7.072;2022-12-07T07:13:37;4.30;99.90
33717;DHT22;20046;50.746;7.072;2022-12-07T07:16:02;4.30;99.90
33717;DHT22;20046;50.746;7.072;2022-12-07T07:18:29;4.30;99.90
33717;DHT22;20046;50.746;7.072;2022-12-07T07:20:55;4.30;99.90
33717;DHT22;20046;50.746;7.072;2022-12-07T07:23:21;4.30;99.90
33717;DHT22;20046;50.746;7.072;2022-12-07T07:25:47;4.30;99.90
33717;DHT22;20046;50.746;7.072;2022-12-07T07:28:13;4.30;99.90
33717;DHT22;20046;50.746;7.072;2022-12-07T07:30:39;4.30;99.90
33717;DHT22;20046;50.746;7.072;2022-12-07T07:33:05;4.30;99.90
33717;DHT22;20046;50.746;7.072;2022-12-07T07:35:32;4.30;99.90
33717;DHT22;20046;50.746;7.072;2022-12-07T07:37:58;4.30;99.90
33717;DHT22;20046;50.746;7.072;2022-12-07T07:40:24;4.30;99.90
33717;DHT22;20046;50.746;7.072;2022-12-07T07:42:53;4.40;99.90
33717;DHT22;20046;50.746;7.072;2022-12-07T07:45:20;4.40;99.90
33717;DHT22;20046;50.746;7.072;2022-12-07T07:47:46;4.50;99.90
33717;DHT22;20046;50.746;7.072;2022-12-07T07:50:12;4.50;99.90
33717;DHT22;20046;50.746;7.072;2022-12-07T07:52:38;4.60;99.90
33717;DHT22;20046;50.746;7.072;2022-12-07T07:55:04;4.60;99.90
33717;DHT22;20046;50.746;7.072;2022-12-07T07:57:30;4.70;99.90
33717;DHT22;20046;50.746;7.072;2022-12-07T07:59:55;4.70;99.90
33717;DHT22;20046;50.746;7.072;2022-12-07T08:02:21;4.70;99.90
33717;DHT22;20046;50.746;7.072;2022-12-07T08:04:47;4.80;99.90
33717;DHT22;20046;50.746;7.072;2022-12-07T08:07:14;4.80;99.90
33717;DHT22;20046;50.746;7.072;2022-12-07T08:09:40;4.90;99.90
33717;DHT22;20046;50.746;7.072;2022-12-07T08:12:06;4.90;99.90
33717;DHT22;20046;50.746;7.072;2022-12-07T08:14:32;4.90;99.90
33717;DHT22;20046;50.746;7.072;2022-12-07T08:16:58;5.00;99.90
33717;DHT22;20046;50.746;7.072;2022-12-07T08:19:24;4.90;99.90
33717;DHT22;20046;50.746;7.072;2022-12-07T08:21:49;4.90;99.90
33717;DHT22;20046;50.746;7.072;2022-12-07T08:24:15;4.90;99.90
33717;DHT22;20046;50.746;7.072;2022-12-07T08:26:41;4.90;99.90
33717;DHT22;20046;50.746;7.072;2022-12-07T08:29:07;4.90;99.90
33717;DHT22;20046;50.746;7.072;2022-12-07T08:31:32;4.90;99.90
33717;DHT22;20046;50.746;7.072;2022-12-07T08:33:58;4.90;99.90
33717;DHT22;20046;50.746;7.072;2022-12-07T08:36:24;5.10;99.90
33717;DHT22;20046;50.746;7.072;2022-12-07T08:38:50;5.10;99.90
33717;DHT22;20046;50.746;7.072;2022-12-07T08:41:15;5.20;99.90
33717;DHT22;20046;50.746;7.072;2022-12-07T08:43:41;5.30;99.90
33717;DHT22;20046;50.746;7.072;2022-12-07T08:46:18;5.50;99.90
33717;DHT22;20046;50.746;7.072;2022-12-07T08:49:48;5.60;99.90
33717;DHT22;20046;50.746;7.072;2022-12-07T08:51:42;5.80;99.90
33717;DHT22;20046;50.746;7.072;2022-12-07T08:54:11;5.80;99.90
33717;DHT22;20046;50.746;7.072;2022-12-07T08:56:39;5.80;99.90
33717;DHT22;20046;50.746;7.072;2022-12-07T08:59:05;5.80;99.90
33717;DHT22;20046;50.746;7.072;2022-12-07T09:01:31;5.80;99.90
33717;DHT22;20046;50.746;7.072;2022-12-07T09:03:56;5.70;99.90
33717;DHT22;20046;50.746;7.072;2022-12-07T09:06:22;5.70;99.90
33717;DHT22;20046;50.746;7.072;2022-12-07T09:08:53;5.60;99.90
33717;DHT22;20046;50.746;7.072;2022-12-07T09:11:20;5.60;99.90
33717;DHT22;20046;50.746;7.072;2022-12-07T09:13:46;5.70;99.90
33717;DHT22;20046;50.746;7.072;2022-12-07T09:16:12;5.70;99.90
33717;DHT22;20046;50.746;7.072;2022-12-07T09:18:37;5.80;99.90
33717;DHT22;20046;50.746;7.072;2022-12-07T09:21:04;5.90;99.90
33717;DHT22;20046;50.746;7.072;2022-12-07T09:23:29;6.10;99.90
33717;DHT22;20046;50.746;7.072;2022-12-07T09:25:59;6.50;99.90
33717;DHT22;20046;50.746;7.072;2022-12-07T09:28:25;6.60;99.90
33717;DHT22;20046;50.746;7.072;2022-12-07T09:30:51;6.70;99.90
33717;DHT22;20046;50.746;7.072;2022-12-07T09:33:17;6.60;99.90
33717;DHT22;20046;50.746;7.072;2022-12-07T09:35:46;6.50;99.90
33717;DHT22;20046;50.746;7.072;2022-12-07T09:38:12;6.40;99.90
33717;DHT22;20046;50.746;7.072;2022-12-07T09:40:38;6.40;99.90
33717;DHT22;20046;50.746;7.072;2022-12-07T09:43:04;6.40;99.90
33717;DHT22;20046;50.746;7.072;2022-12-07T09:45:34;6.40;99.90
33717;DHT22;20046;50.746;7.072;2022-12-07T09:48:00;6.40;99.90
33717;DHT22;20046;50.746;7.072;2022-12-07T09:50:27;6.50;99.90
33717;DHT22;20046;50.746;7.072;2022-12-07T09:52:55;6.60;99.90
33717;DHT22;20046;50.746;7.072;2022-12-07T09:55:28;6.70;99.90
33717;DHT22;20046;50.746;7.072;2022-12-07T09:57:55;6.80;99.90
33717;DHT22;20046;50.746;7.072;2022-12-07T10:00:23;6.90;99.90
33717;DHT22;20046;50.746;7.072;2022-12-07T10:02:55;6.90;99.90
33717;DHT22;20046;50.746;7.072;2022-12-07T10:06:02;6.90;99.90
33717;DHT22;20046;50.746;7.072;2022-12-07T10:08:20;6.80;99.90
33717;DHT22;20046;50.746;7.072;2022-12-07T10:10:50;6.80;99.90
33717;DHT22;20046;50.746;7.072;2022-12-07T10:13:21;6.70;99.90
33717;DHT22;20046;50.746;7.072;2022-12-07T10:15:56;6.70;99.90
33717;DHT22;20046;50.746;7.072;2022-12-07T10:18:36;6.70;99.90
33717;DHT22;20046;50.746;7.072;2022-12-07T10:21:13;6.80;99.90
33717;DHT22;20046;50.746;7.072;2022-12-07T10:23:41;6.90;99.90
33717;DHT22;20046;50.746;7.072;2022-12-07T10:26:34;7.10;99.90
33717;DHT22;20046;50.746;7.072;2022-12-07T10:29:21;7.20;99.90
33717;DHT22;20046;50.746;7.072;2022-12-07T10:31:54;7.40;99.90
33717;DHT22;20046;50.746;7.072;2022-12-07T10:34:28;7.50;99.90
33717;DHT22;20046;50.746;7.072;2022-12-07T10:44:43;7.80;99.90
33717;DHT22;20046;50.746;7.072;2022-12-07T10:47:26;7.80;99.90
33717;DHT22;20046;50.746;7.072;2022-12-07T11:03:55;7.60;99.90
33717;DHT22;20046;50.746;7.072;2022-12-07T11:06:43;7.50;99.90
33717;DHT22;20046;50.746;7.072;2022-12-07T11:15:01;7.40;99.90
33717;DHT22;20046;50.746;7.072;2022-12-07T11:17:59;7.40;99.90
33717;DHT22;20046;50.746;7.072;2022-12-07T11:36:54;8.50;99.90
33717;DHT22;20046;50.746;7.072;2022-12-07T11:45:02;10.10;99.90
33717;DHT22;20046;50.746;7.072;2022-12-07T11:50:30;11.60;99.90
33717;DHT22;20046;50.746;7.072;2022-12-07T11:58:19;14.80;99.90
33717;DHT22;20046;50.746;7.072;2022-12-07T12:00:48;15.20;99.90
33717;DHT22;20046;50.746;7.072;2022-12-07T12:03:21;14.50;99.90
33717;DHT22;20046;50.746;7.072;2022-12-07T12:05:49;13.50;99.90
33717;DHT22;20046;50.746;7.072;2022-12-07T12:08:20;13.20;99.90
33717;DHT22;20046;50.746;7.072;2022-12-07T12:13:38;12.00;99.90
33717;DHT22;20046;50.746;7.072;2022-12-07T12:19:33;10.90;99.90
33717;DHT22;20046;50.746;7.072;2022-12-07T12:21:34;10.90;99.90
33717;DHT22;20046;50.746;7.072;2022-12-07T12:24:03;10.60;99.90
33717;DHT22;20046;50.746;7.072;2022-12-07T12:26:33;10.50;99.90
33717;DHT22;20046;50.746;7.072;2022-12-07T12:29:06;10.30;99.90
33717;DHT22;20046;50.746;7.072;2022-12-07T12:34:29;9.60;99.90
33717;DHT22;20046;50.746;7.072;2022-12-07T12:36:47;9.20;99.90
33717;DHT22;20046;50.746;7.072;2022-12-07T12:39:17;8.80;99.90
33717;DHT22;20046;50.746;7.072;2022-12-07T12:49:43;8.00;99.90
33717;DHT22;20046;50.746;7.072;2022-12-07T12:57:35;7.90;99.90
33717;DHT22;20046;50.746;7.072;2022-12-07T13:00:18;7.90;99.90
33717;DHT22;20046;50.746;7.072;2022-12-07T13:02:53;7.80;99.90
33717;DHT22;20046;50.746;7.072;2022-12-07T13:05:30;7.70;99.90
33717;DHT22;20046;50.746;7.072;2022-12-07T13:10:46;7.50;99.90
33717;DHT22;20046;50.746;7.072;2022-12-07T13:18:40;7.20;99.90
33717;DHT22;20046;50.746;7.072;2022-12-07T13:26:19;7.10;99.90
33717;DHT22;20046;50.746;7.072;2022-12-07T13:28:52;7.00;99.90
33717;DHT22;20046;50.746;7.072;2022-12-07T13:31:36;6.90;99.90
33717;DHT22;20046;50.746;7.072;2022-12-07T13:34:04;6.90;99.90
33717;DHT22;20046;50.746;7.072;2022-12-07T13:36:33;7.00;99.90
33717;DHT22;20046;50.746;7.072;2022-12-07T13:41:42;7.10;99.90
33717;DHT22;20046;50.746;7.072;2022-12-07T13:44:13;7.10;99.90
33717;DHT22;20046;50.746;7.072;2022-12-07T13:49:31;7.00;99.90
33717;DHT22;20046;50.746;7.072;2022-12-07T13:52:14;7.00;99.90
33717;DHT22;20046;50.746;7.072;2022-12-07T13:55:22;7.00;99.90
33717;DHT22;20046;50.746;7.072;2022-12-07T13:57:50;7.00;99.90
33717;DHT22;20046;50.746;7.072;2022-12-07T14:05:40;6.90;99.90
33717;DHT22;20046;50.746;7.072;2022-12-07T14:10:54;6.80;99.90
33717;DHT22;20046;50.746;7.072;2022-12-07T14:13:36;6.70;99.90
33717;DHT22;20046;50.746;7.072;2022-12-07T14:18:43;6.60;99.90
33717;DHT22;20046;50.746;7.072;2022-12-07T14:23:37;6.40;99.90
33717;DHT22;20046;50.746;7.072;2022-12-07T14:28:39;6.30;99.90
33717;DHT22;20046;50.746;7.072;2022-12-07T14:31:11;6.30;99.90
33717;DHT22;20046;50.746;7.072;2022-12-07T14:33:38;6.20;99.90
33717;DHT22;20046;50.746;7.072;2022-12-07T14:36:04;6.10;99.90
33717;DHT22;20046;50.746;7.072;2022-12-07T14:38:30;6.10;99.90
33717;DHT22;20046;50.746;7.072;2022-12-07T14:40:56;6.00;99.90
33717;DHT22;20046;50.746;7.072;2022-12-07T14:43:45;6.00;99.90
33717;DHT22;20046;50.746;7.072;2022-12-07T14:46:10;5.90;99.90
33717;DHT22;20046;50.746;7.072;2022-12-07T14:48:36;5.90;99.90
33717;DHT22;20046;50.746;7.072;2022-12-07T14:51:02;5.90;99.90
33717;DHT22;20046;50.746;7.072;2022-12-07T14:53:34;5.90;99.90
33717;DHT22;20046;50.746;7.072;2022-12-07T14:56:01;5.90;99.90
33717;DHT22;20046;50.746;7.072;2022-12-07T14:58:27;5.90;99.90
33717;DHT22;20046;50.746;7.072;2022-12-07T15:00:52;5.90;99.90
33717;DHT22;20046;50.746;7.072;2022-12-07T15:03:18;5.80;99.90
33717;DHT22;20046;50.746;7.072;2022-12-07T15:05:44;5.80;99.90
33717;DHT22;20046;50.746;7.072;2022-12-07T15:08:12;5.80;99.90
33717;DHT22;20046;50.746;7.072;2022-12-07T15:10:38;5.70;99.90
33717;DHT22;20046;50.746;7.072;2022-12-07T15:13:06;5.70;99.90
33717;DHT22;20046;50.746;7.072;2022-12-07T15:15:51;5.60;99.90
33717;DHT22;20046;50.746;7.072;2022-12-07T15:18:19;5.60;99.90
33717;DHT22;20046;50.746;7.072;2022-12-07T15:20:45;5.60;99.90
33717;DHT22;20046;50.746;7.072;2022-12-07T15:23:11;5.60;99.90
33717;DHT22;20046;50.746;7.072;2022-12-07T15:25:43;5.50;99.90
33717;DHT22;20046;50.746;7.072;2022-12-07T15:28:09;5.50;99.90
33717;DHT22;20046;50.746;7.072;2022-12-07T15:30:37;5.50;99.90
33717;DHT22;20046;50.746;7.072;2022-12-07T15:33:03;5.40;99.90
33717;DHT22;20046;50.746;7.072;2022-12-07T15:35:28;5.40;99.90
33717;DHT22;20046;50.746;7.072;2022-12-07T15:37:54;5.40;99.90
33717;DHT22;20046;50.746;7.072;2022-12-07T15:40:19;5.40;99.90
33717;DHT22;20046;50.746;7.072;2022-12-07T15:42:45;5.40;99.90
33717;DHT22;20046;50.746;7.072;2022-12-07T15:45:11;5.40;99.90
33717;DHT22;20046;50.746;7.072;2022-12-07T15:47:41;5.40;99.90
33717;DHT22;20046;50.746;7.072;2022-12-07T15:50:09;5.40;99.90
33717;DHT22;20046;50.746;7.072;2022-12-07T15:52:35;5.40;99.90
33717;DHT22;20046;50.746;7.072;2022-12-07T15:55:02;5.40;99.90
33717;DHT22;20046;50.746;7.072;2022-12-07T15:57:32;5.50;99.90
33717;DHT22;20046;50.746;7.072;2022-12-07T15:59:59;5.50;99.90
33717;DHT22;20046;50.746;7.072;2022-12-07T16:02:25;5.50;99.90
33717;DHT22;20046;50.746;7.072;2022-12-07T16:04:51;5.50;99.90
33717;DHT22;20046;50.746;7.072;2022-12-07T16:07:17;5.40;99.90
33717;DHT22;20046;50.746;7.072;2022-12-07T16:09:44;5.40;99.90
33717;DHT22;20046;50.746;7.072;2022-12-07T16:12:11;5.40;99.90
33717;DHT22;20046;50.746;7.072;2022-12-07T16:14:37;5.40;99.90
33717;DHT22;20046;50.746;7.072;2022-12-07T16:17:03;5.40;99.90
33717;DHT22;20046;50.746;7.072;2022-12-07T16:19:30;5.40;99.90
33717;DHT22;20046;50.746;7.072;2022-12-07T16:21:55;5.40;99.90
33717;DHT22;20046;50.746;7.072;2022-12-07T16:24:21;5.40;99.90
33717;DHT22;20046;50.746;7.072;2022-12-07T16:26:47;5.40;99.90
33717;DHT22;20046;50.746;7.072;2022-12-07T16:29:13;5.40;99.90
33717;DHT22;20046;50.746;7.072;2022-12-07T16:31:40;5.40;99.90
33717;DHT22;20046;50.746;7.072;2022-12-07T16:34:06;5.40;99.90
33717;DHT22;20046;50.746;7.072;2022-12-07T16:36:32;5.40;99.90
33717;DHT22;20046;50.746;7.072;2022-12-07T16:38:59;5.40;99.90
33717;DHT22;20046;50.746;7.072;2022-12-07T16:41:25;5.50;99.90
33717;DHT22;20046;50.746;7.072;2022-12-07T16:43:50;5.50;99.90
33717;DHT22;20046;50.746;7.072;2022-12-07T16:46:17;5.40;99.90
33717;DHT22;20046;50.746;7.072;2022-12-07T16:48:43;5.50;99.90
33717;DHT22;20046;50.746;7.072;2022-12-07T16:51:11;5.50;99.90
33717;DHT22;20046;50.746;7.072;2022-12-07T16:53:38;5.50;99.90
33717;DHT22;20046;50.746;7.072;2022-12-07T16:56:13;5.50;99.90
33717;DHT22;20046;50.746;7.072;2022-12-07T16:58:40;5.50;99.90
33717;DHT22;20046;50.746;7.072;2022-12-07T17:01:16;5.40;99.90
33717;DHT22;20046;50.746;7.072;2022-12-07T17:03:42;5.40;99.90
33717;DHT22;20046;50.746;7.072;2022-12-07T17:06:19;5.40;99.90
33717;DHT22;20046;50.746;7.072;2022-12-07T17:08:46;5.30;99.90
33717;DHT22;20046;50.746;7.072;2022-12-07T17:11:17;5.30;99.90
33717;DHT22;20046;50.746;7.072;2022-12-07T17:13:43;5.30;99.90
33717;DHT22;20046;50.746;7.072;2022-12-07T17:16:28;5.20;99.90
33717;DHT22;20046;50.746;7.072;2022-12-07T17:18:54;5.20;99.90
33717;DHT22;20046;50.746;7.072;2022-12-07T17:21:20;5.20;99.90
33717;DHT22;20046;50.746;7.072;2022-12-07T17:23:46;5.20;99.90
33717;DHT22;20046;50.746;7.072;2022-12-07T17:26:23;5.10;99.90
33717;DHT22;20046;50.746;7.072;2022-12-07T17:28:49;5.10;99.90
33717;DHT22;20046;50.746;7.072;2022-12-07T17:31:16;5.10;99.90
33717;DHT22;20046;50.746;7.072;2022-12-07T17:33:42;5.10;99.90
33717;DHT22;20046;50.746;7.072;2022-12-07T17:36:22;5.00;99.90
33717;DHT22;20046;50.746;7.072;2022-12-07T17:38:49;5.00;99.90
33717;DHT22;20046;50.746;7.072;2022-12-07T17:41:17;5.00;99.90
33717;DHT22;20046;50.746;7.072;2022-12-07T17:44:03;5.00;99.90
33717;DHT22;20046;50.746;7.072;2022-12-07T17:46:29;5.00;99.90
33717;DHT22;20046;50.746;7.072;2022-12-07T17:48:55;4.90;99.90
33717;DHT22;20046;50.746;7.072;2022-12-07T17:51:21;4.90;99.90
33717;DHT22;20046;50.746;7.072;2022-12-07T17:54:06;4.90;99.90
33717;DHT22;20046;50.746;7.072;2022-12-07T17:56:31;4.90;99.90
33717;DHT22;20046;50.746;7.072;2022-12-07T17:58:57;4.90;99.90
33717;DHT22;20046;50.746;7.072;2022-12-07T18:01:22;4.90;99.90
33717;DHT22;20046;50.746;7.072;2022-12-07T18:03:48;4.80;99.90
33717;DHT22;20046;50.746;7.072;2022-12-07T18:06:13;4.90;99.90